sensor_id;sensor_type;location;lat;lon;timestamp;pressure;altitude;pressure_sealevel;temperature;humidity
79331;BME280;68797;49.782;19.054;2024-01-30T00:00:29;98934.53;;;1.01;78.51
79331;BME280;68797;49.782;19.054;2024-01-30T00:03:18;98934.72;;;1.07;78.14
79331;BME280;68797;49.782;19.054;2024-01-30T00:05:45;98938.47;;;1.15;78.68
79331;BME280;68797;49.782;19.054;2024-01-30T00:08:12;98924.97;;;1.01;78.77
79331;BME280;68797;49.782;19.054;2024-01-30T00:10:40;98940.09;;;1.11;77.85
79331;BME280;68797;49.782;19.054;2024-01-30T00:13:07;98928.59;;;1.06;78.50
79331;BME280;68797;49.782;19.054;2024-01-30T00:15:34;98931.06;;;1.02;78.37
79331;BME280;68797;49.782;19.054;2024-01-30T00:18:00;98930.63;;;1.15;76.85
79331;BME280;68797;49.782;19.054;2024-01-30T00:20:28;98928.84;;;1.14;76.83
79331;BME280;68797;49.782;19.054;2024-01-30T00:22:57;98925.53;;;1.20;75.58
79331;BME280;68797;49.782;19.054;2024-01-30T00:25:23;98921.38;;;1.26;75.15
79331;BME280;68797;49.782;19.054;2024-01-30T00:27:52;98920.84;;;1.36;74.34
79331;BME280;68797;49.782;19.054;2024-01-30T00:30:20;98931.66;;;1.49;73.00
79331;BME280;68797;49.782;19.054;2024-01-30T00:32:46;98921.00;;;1.42;73.92
79331;BME280;68797;49.782;19.054;2024-01-30T00:35:13;98927.19;;;1.44;73.75
79331;BME280;68797;49.782;19.054;2024-01-30T00:37:40;98923.75;;;1.45;73.42
79331;BME280;68797;49.782;19.054;2024-01-30T00:40:08;98926.28;;;1.44;73.18
79331;BME280;68797;49.782;19.054;2024-01-30T00:42:37;98919.19;;;1.40;74.11
79331;BME280;68797;49.782;19.054;2024-01-30T00:45:04;98917.38;;;1.37;74.33
79331;BME280;68797;49.782;19.054;2024-01-30T00:47:30;98911.56;;;1.19;74.71
79331;BME280;68797;49.782;19.054;2024-01-30T00:50:00;98910.94;;;1.26;73.98
79331;BME280;68797;49.782;19.054;2024-01-30T00:52:27;98902.44;;;1.33;74.39
79331;BME280;68797;49.782;19.054;2024-01-30T00:54:54;98908.34;;;1.28;75.05
79331;BME280;68797;49.782;19.054;2024-01-30T00:57:22;98917.84;;;1.24;74.52
79331;BME280;68797;49.782;19.054;2024-01-30T00:59:49;98916.13;;;1.25;74.77
79331;BME280;68797;49.782;19.054;2024-01-30T01:02:17;98916.06;;;1.23;74.52
79331;BME280;68797;49.782;19.054;2024-01-30T01:04:44;98911.56;;;1.19;73.56
79331;BME280;68797;49.782;19.054;2024-01-30T01:07:11;98922.56;;;1.09;74.12
79331;BME280;68797;49.782;19.054;2024-01-30T01:09:38;98916.75;;;1.17;74.13
79331;BME280;68797;49.782;19.054;2024-01-30T01:12:05;98923.44;;;1.09;75.21
79331;BME280;68797;49.782;19.054;2024-01-30T01:14:31;98921.91;;;1.14;75.02
79331;BME280;68797;49.782;19.054;2024-01-30T01:16:58;98919.28;;;1.14;73.99
79331;BME280;68797;49.782;19.054;2024-01-30T01:19:24;98915.88;;;1.17;74.64
79331;BME280;68797;49.782;19.054;2024-01-30T01:21:51;98923.41;;;1.08;74.61
79331;BME280;68797;49.782;19.054;2024-01-30T01:24:18;98916.38;;;1.05;74.27
79331;BME280;68797;49.782;19.054;2024-01-30T01:26:45;98926.03;;;1.08;73.93
79331;BME280;68797;49.782;19.054;2024-01-30T01:29:12;98917.47;;;1.12;73.63
79331;BME280;68797;49.782;19.054;2024-01-30T01:31:40;98912.63;;;1.24;71.17
79331;BME280;68797;49.782;19.054;2024-01-30T01:34:10;98900.22;;;1.19;72.16
79331;BME280;68797;49.782;19.054;2024-01-30T01:36:37;98898.53;;;1.21;72.83
79331;BME280;68797;49.782;19.054;2024-01-30T01:39:04;98896.03;;;1.24;72.00
79331;BME280;68797;49.782;19.054;2024-01-30T01:41:32;98894.34;;;1.26;73.39
79331;BME280;68797;49.782;19.054;2024-01-30T01:43:59;98883.56;;;1.15;74.31
79331;BME280;68797;49.782;19.054;2024-01-30T01:46:27;98891.38;;;1.13;74.37
79331;BME280;68797;49.782;19.054;2024-01-30T01:48:56;98886.31;;;1.20;73.10
79331;BME280;68797;49.782;19.054;2024-01-30T01:51:23;98872.22;;;1.14;73.63
79331;BME280;68797;49.782;19.054;2024-01-30T01:53:51;98869.31;;;1.05;73.66
79331;BME280;68797;49.782;19.054;2024-01-30T01:56:18;98869.38;;;1.07;74.05
79331;BME280;68797;49.782;19.054;2024-01-30T01:58:46;98873.75;;;1.08;73.63
79331;BME280;68797;49.782;19.054;2024-01-30T02:01:14;98868.38;;;1.03;73.26
79331;BME280;68797;49.782;19.054;2024-01-30T02:03:46;98870.44;;;1.13;72.21
79331;BME280;68797;49.782;19.054;2024-01-30T02:06:14;98869.63;;;1.14;73.28
79331;BME280;68797;49.782;19.054;2024-01-30T02:08:41;98874.16;;;1.22;71.68
79331;BME280;68797;49.782;19.054;2024-01-30T02:11:08;98861.28;;;1.28;71.97
79331;BME280;68797;49.782;19.054;2024-01-30T02:13:36;98857.72;;;1.24;72.39
79331;BME280;68797;49.782;19.054;2024-01-30T02:16:05;98858.75;;;1.31;71.98
79331;BME280;68797;49.782;19.054;2024-01-30T02:18:32;98859.56;;;1.28;71.92
79331;BME280;68797;49.782;19.054;2024-01-30T02:21:18;98862.41;;;1.36;72.68
79331;BME280;68797;49.782;19.054;2024-01-30T02:23:49;98856.03;;;1.26;72.74
79331;BME280;68797;49.782;19.054;2024-01-30T02:26:17;98848.25;;;1.29;72.62
79331;BME280;68797;49.782;19.054;2024-01-30T02:28:45;98848.78;;;1.17;73.33
79331;BME280;68797;49.782;19.054;2024-01-30T02:31:12;98842.78;;;1.22;74.19
79331;BME280;68797;49.782;19.054;2024-01-30T02:33:43;98845.38;;;1.20;73.09
79331;BME280;68797;49.782;19.054;2024-01-30T02:36:09;98843.78;;;1.25;72.85
79331;BME280;68797;49.782;19.054;2024-01-30T02:38:36;98836.78;;;1.24;72.56
79331;BME280;68797;49.782;19.054;2024-01-30T02:41:04;98853.38;;;1.25;71.98
79331;BME280;68797;49.782;19.054;2024-01-30T02:43:30;98835.22;;;1.31;71.29
79331;BME280;68797;49.782;19.054;2024-01-30T02:45:58;98846.72;;;1.36;71.64
79331;BME280;68797;49.782;19.054;2024-01-30T02:48:28;98847.66;;;1.38;71.39
79331;BME280;68797;49.782;19.054;2024-01-30T02:50:54;98853.81;;;1.40;70.69
79331;BME280;68797;49.782;19.054;2024-01-30T02:53:21;98832.91;;;1.40;69.76
79331;BME280;68797;49.782;19.054;2024-01-30T02:55:48;98839.28;;;1.50;69.84
79331;BME280;68797;49.782;19.054;2024-01-30T02:58:15;98835.75;;;1.48;69.44
79331;BME280;68797;49.782;19.054;2024-01-30T03:00:42;98833.13;;;1.48;69.29
79331;BME280;68797;49.782;19.054;2024-01-30T03:03:09;98831.44;;;1.50;68.87
79331;BME280;68797;49.782;19.054;2024-01-30T03:05:36;98830.78;;;1.57;68.13
79331;BME280;68797;49.782;19.054;2024-01-30T03:08:05;98816.81;;;1.56;69.04
79331;BME280;68797;49.782;19.054;2024-01-30T03:10:31;98823.13;;;1.64;67.79
79331;BME280;68797;49.782;19.054;2024-01-30T03:12:57;98828.47;;;1.67;66.47
79331;BME280;68797;49.782;19.054;2024-01-30T03:15:23;98820.72;;;1.70;65.34
79331;BME280;68797;49.782;19.054;2024-01-30T03:17:53;98832.72;;;1.64;66.39
79331;BME280;68797;49.782;19.054;2024-01-30T03:20:19;98826.94;;;1.75;65.66
79331;BME280;68797;49.782;19.054;2024-01-30T03:22:45;98830.50;;;1.78;65.89
79331;BME280;68797;49.782;19.054;2024-01-30T03:25:13;98814.69;;;1.74;65.81
79331;BME280;68797;49.782;19.054;2024-01-30T03:27:41;98835.09;;;1.86;65.00
79331;BME280;68797;49.782;19.054;2024-01-30T03:30:08;98824.50;;;1.82;65.91
79331;BME280;68797;49.782;19.054;2024-01-30T03:32:35;98810.78;;;1.90;65.75
79331;BME280;68797;49.782;19.054;2024-01-30T03:35:02;98830.00;;;1.91;66.85
79331;BME280;68797;49.782;19.054;2024-01-30T03:37:30;98830.66;;;1.84;67.55
79331;BME280;68797;49.782;19.054;2024-01-30T03:39:56;98832.44;;;1.85;66.73
79331;BME280;68797;49.782;19.054;2024-01-30T03:42:23;98826.91;;;1.74;68.12
79331;BME280;68797;49.782;19.054;2024-01-30T03:44:49;98843.38;;;1.70;69.37
79331;BME280;68797;49.782;19.054;2024-01-30T03:47:21;98823.78;;;1.56;70.46
79331;BME280;68797;49.782;19.054;2024-01-30T03:49:47;98826.59;;;1.63;68.69
79331;BME280;68797;49.782;19.054;2024-01-30T03:52:13;98818.78;;;1.65;67.87
79331;BME280;68797;49.782;19.054;2024-01-30T03:54:40;98821.47;;;1.66;68.60
79331;BME280;68797;49.782;19.054;2024-01-30T03:57:08;98819.53;;;1.59;69.92
79331;BME280;68797;49.782;19.054;2024-01-30T03:59:35;98826.31;;;1.54;69.44
79331;BME280;68797;49.782;19.054;2024-01-30T04:02:02;98822.16;;;1.61;69.14
79331;BME280;68797;49.782;19.054;2024-01-30T04:04:29;98824.56;;;1.53;69.37
79331;BME280;68797;49.782;19.054;2024-01-30T04:06:56;98825.91;;;1.69;67.63
79331;BME280;68797;49.782;19.054;2024-01-30T04:09:22;98816.00;;;1.59;69.03
79331;BME280;68797;49.782;19.054;2024-01-30T04:11:48;98826.91;;;1.74;68.07
79331;BME280;68797;49.782;19.054;2024-01-30T04:14:15;98812.84;;;1.70;67.96
79331;BME280;68797;49.782;19.054;2024-01-30T04:16:42;98828.38;;;1.64;68.65
79331;BME280;68797;49.782;19.054;2024-01-30T04:19:08;98825.84;;;1.67;68.63
79331;BME280;68797;49.782;19.054;2024-01-30T04:21:36;98837.03;;;1.62;68.78
79331;BME280;68797;49.782;19.054;2024-01-30T04:24:04;98832.44;;;1.55;69.30
79331;BME280;68797;49.782;19.054;2024-01-30T04:26:30;98831.78;;;1.62;68.82
79331;BME280;68797;49.782;19.054;2024-01-30T04:28:56;98836.19;;;1.63;68.88
79331;BME280;68797;49.782;19.054;2024-01-30T04:31:23;98827.13;;;1.52;69.92
79331;BME280;68797;49.782;19.054;2024-01-30T04:33:50;98841.72;;;1.43;70.91
79331;BME280;68797;49.782;19.054;2024-01-30T04:36:17;98836.72;;;1.51;70.28
79331;BME280;68797;49.782;19.054;2024-01-30T04:38:44;98833.75;;;1.39;71.28
79331;BME280;68797;49.782;19.054;2024-01-30T04:41:11;98828.16;;;1.27;71.56
79331;BME280;68797;49.782;19.054;2024-01-30T04:43:39;98838.69;;;1.30;71.55
79331;BME280;68797;49.782;19.054;2024-01-30T04:46:11;98840.91;;;1.44;69.67
79331;BME280;68797;49.782;19.054;2024-01-30T04:48:45;98839.91;;;1.41;70.33
79331;BME280;68797;49.782;19.054;2024-01-30T04:51:22;98835.19;;;1.29;71.95
79331;BME280;68797;49.782;19.054;2024-01-30T04:53:51;98840.34;;;1.26;71.19
79331;BME280;68797;49.782;19.054;2024-01-30T04:56:30;98821.97;;;1.23;71.59
79331;BME280;68797;49.782;19.054;2024-01-30T04:59:03;98825.66;;;1.31;71.42
79331;BME280;68797;49.782;19.054;2024-01-30T05:01:32;98826.63;;;1.33;71.31
79331;BME280;68797;49.782;19.054;2024-01-30T05:04:20;98821.28;;;1.30;71.31
79331;BME280;68797;49.782;19.054;2024-01-30T05:06:58;98821.19;;;1.27;70.78
79331;BME280;68797;49.782;19.054;2024-01-30T05:09:28;98823.41;;;1.43;70.45
79331;BME280;68797;49.782;19.054;2024-01-30T05:12:07;98819.91;;;1.43;70.39
79331;BME280;68797;49.782;19.054;2024-01-30T05:15:00;98823.28;;;1.39;70.32
79331;BME280;68797;49.782;19.054;2024-01-30T05:17:38;98821.78;;;1.47;69.71
79331;BME280;68797;49.782;19.054;2024-01-30T05:20:13;98825.56;;;1.57;68.49
79331;BME280;68797;49.782;19.054;2024-01-30T05:22:57;98832.56;;;1.58;67.96
79331;BME280;68797;49.782;19.054;2024-01-30T05:25:29;98826.59;;;1.63;67.39
79331;BME280;68797;49.782;19.054;2024-01-30T05:28:17;98830.06;;;1.62;67.31
79331;BME280;68797;49.782;19.054;2024-01-30T05:30:49;98828.91;;;1.53;67.91
79331;BME280;68797;49.782;19.054;2024-01-30T05:33:18;98848.13;;;1.55;67.94
79331;BME280;68797;49.782;19.054;2024-01-30T05:36:03;98843.97;;;1.61;68.06
79331;BME280;68797;49.782;19.054;2024-01-30T05:38:39;98842.09;;;1.56;68.51
79331;BME280;68797;49.782;19.054;2024-01-30T05:41:21;98835.28;;;1.62;67.54
79331;BME280;68797;49.782;19.054;2024-01-30T05:43:53;98831.63;;;1.56;68.21
79331;BME280;68797;49.782;19.054;2024-01-30T05:46:35;98828.72;;;1.45;68.39
79331;BME280;68797;49.782;19.054;2024-01-30T05:49:17;98833.22;;;1.51;67.71
79331;BME280;68797;49.782;19.054;2024-01-30T05:52:03;98831.97;;;1.68;66.69
79331;BME280;68797;49.782;19.054;2024-01-30T05:54:45;98827.31;;;1.58;67.46
79331;BME280;68797;49.782;19.054;2024-01-30T05:57:23;98828.06;;;1.54;66.84
79331;BME280;68797;49.782;19.054;2024-01-30T05:59:53;98833.13;;;1.48;67.63
79331;BME280;68797;49.782;19.054;2024-01-30T06:02:31;98832.13;;;1.44;67.79
79331;BME280;68797;49.782;19.054;2024-01-30T06:05:06;98836.47;;;1.43;68.15
79331;BME280;68797;49.782;19.054;2024-01-30T06:07:35;98834.00;;;1.48;66.66
79331;BME280;68797;49.782;19.054;2024-01-30T06:10:10;98828.50;;;1.39;68.28
79331;BME280;68797;49.782;19.054;2024-01-30T06:12:45;98825.13;;;1.43;67.97
79331;BME280;68797;49.782;19.054;2024-01-30T06:15:42;98814.59;;;1.40;67.95
79331;BME280;68797;49.782;19.054;2024-01-30T06:18:14;98818.06;;;1.39;67.98
79331;BME280;68797;49.782;19.054;2024-01-30T06:20:44;98833.06;;;1.44;67.59
79331;BME280;68797;49.782;19.054;2024-01-30T06:23:14;98821.63;;;1.42;67.09
79331;BME280;68797;49.782;19.054;2024-01-30T06:25:57;98826.28;;;1.53;66.04
79331;BME280;68797;49.782;19.054;2024-01-30T06:28:40;98818.41;;;1.51;65.85
79331;BME280;68797;49.782;19.054;2024-01-30T06:31:26;98826.59;;;1.63;65.24
79331;BME280;68797;49.782;19.054;2024-01-30T06:34:01;98820.44;;;1.61;64.95
79331;BME280;68797;49.782;19.054;2024-01-30T06:36:31;98817.41;;;1.46;65.92
79331;BME280;68797;49.782;19.054;2024-01-30T06:39:13;98824.41;;;1.47;66.08
79331;BME280;68797;49.782;19.054;2024-01-30T06:41:48;98832.25;;;1.47;66.13
79331;BME280;68797;49.782;19.054;2024-01-30T06:44:32;98842.03;;;1.54;65.60
79331;BME280;68797;49.782;19.054;2024-01-30T06:47:04;98828.25;;;1.60;65.54
79331;BME280;68797;49.782;19.054;2024-01-30T06:50:14;98827.44;;;1.62;64.56
79331;BME280;68797;49.782;19.054;2024-01-30T06:52:45;98827.97;;;1.81;62.19
79331;BME280;68797;49.782;19.054;2024-01-30T06:55:23;98835.22;;;1.91;63.43
79331;BME280;68797;49.782;19.054;2024-01-30T06:58:03;98831.59;;;1.86;62.72
79331;BME280;68797;49.782;19.054;2024-01-30T07:00:47;98836.94;;;1.89;61.72
79331;BME280;68797;49.782;19.054;2024-01-30T07:03:28;98830.16;;;1.97;62.37
79331;BME280;68797;49.782;19.054;2024-01-30T07:06:10;98832.50;;;1.88;61.49
79331;BME280;68797;49.782;19.054;2024-01-30T07:08:46;98834.47;;;1.95;61.63
79331;BME280;68797;49.782;19.054;2024-01-30T07:11:24;98838.75;;;1.91;62.20
79331;BME280;68797;49.782;19.054;2024-01-30T07:14:13;98826.13;;;2.10;61.59
79331;BME280;68797;49.782;19.054;2024-01-30T07:16:49;98831.59;;;2.19;62.04
79331;BME280;68797;49.782;19.054;2024-01-30T07:19:20;98838.50;;;2.15;61.78
79331;BME280;68797;49.782;19.054;2024-01-30T07:22:01;98820.88;;;2.10;61.22
79331;BME280;68797;49.782;19.054;2024-01-30T07:24:41;98828.13;;;2.20;61.15
79331;BME280;68797;49.782;19.054;2024-01-30T07:27:45;98823.84;;;2.22;60.55
79331;BME280;68797;49.782;19.054;2024-01-30T07:30:14;98820.25;;;2.18;60.44
79331;BME280;68797;49.782;19.054;2024-01-30T07:32:51;98816.03;;;2.23;60.42
79331;BME280;68797;49.782;19.054;2024-01-30T07:35:20;98816.19;;;2.29;60.00
79331;BME280;68797;49.782;19.054;2024-01-30T07:37:59;98814.16;;;2.54;56.06
79331;BME280;68797;49.782;19.054;2024-01-30T07:40:30;98823.31;;;2.70;56.98
79331;BME280;68797;49.782;19.054;2024-01-30T07:43:06;98821.03;;;2.85;55.72
79331;BME280;68797;49.782;19.054;2024-01-30T07:45:45;98802.53;;;2.77;57.49
79331;BME280;68797;49.782;19.054;2024-01-30T07:48:27;98809.66;;;2.84;55.83
79331;BME280;68797;49.782;19.054;2024-01-30T07:50:56;98819.34;;;2.87;55.17
79331;BME280;68797;49.782;19.054;2024-01-30T07:53:28;98821.41;;;3.00;55.83
79331;BME280;68797;49.782;19.054;2024-01-30T07:56:07;98819.75;;;3.04;55.07
79331;BME280;68797;49.782;19.054;2024-01-30T07:58:47;98823.53;;;3.16;54.15
79331;BME280;68797;49.782;19.054;2024-01-30T08:01:17;98800.81;;;3.17;55.02
79331;BME280;68797;49.782;19.054;2024-01-30T08:03:53;98822.03;;;3.28;58.05
79331;BME280;68797;49.782;19.054;2024-01-30T08:06:32;98816.59;;;3.20;57.13
79331;BME280;68797;49.782;19.054;2024-01-30T08:09:17;98818.44;;;3.23;57.48
79331;BME280;68797;49.782;19.054;2024-01-30T08:11:53;98820.16;;;3.22;57.86
79331;BME280;68797;49.782;19.054;2024-01-30T08:14:31;98810.72;;;3.32;58.76
79331;BME280;68797;49.782;19.054;2024-01-30T08:17:08;98830.09;;;3.37;58.53
79331;BME280;68797;49.782;19.054;2024-01-30T08:19:52;98817.19;;;3.46;56.95
79331;BME280;68797;49.782;19.054;2024-01-30T08:22:25;98824.28;;;3.52;58.05
79331;BME280;68797;49.782;19.054;2024-01-30T08:25:02;98824.94;;;3.41;58.47
79331;BME280;68797;49.782;19.054;2024-01-30T08:27:41;98825.91;;;3.45;58.96
79331;BME280;68797;49.782;19.054;2024-01-30T08:30:16;98828.66;;;3.51;58.68
79331;BME280;68797;49.782;19.054;2024-01-30T08:32:53;98825.34;;;3.60;56.68
79331;BME280;68797;49.782;19.054;2024-01-30T08:35:23;98818.63;;;3.74;57.05
79331;BME280;68797;49.782;19.054;2024-01-30T08:38:03;98830.97;;;3.78;55.70
79331;BME280;68797;49.782;19.054;2024-01-30T08:40:33;98824.88;;;3.79;56.04
79331;BME280;68797;49.782;19.054;2024-01-30T08:43:17;98823.19;;;3.84;56.33
79331;BME280;68797;49.782;19.054;2024-01-30T08:45:46;98826.00;;;3.93;55.89
79331;BME280;68797;49.782;19.054;2024-01-30T08:48:20;98824.66;;;4.14;56.03
79331;BME280;68797;49.782;19.054;2024-01-30T08:50:52;98821.06;;;4.10;55.31
79331;BME280;68797;49.782;19.054;2024-01-30T08:53:35;98824.91;;;4.27;53.36
79331;BME280;68797;49.782;19.054;2024-01-30T08:56:17;98827.75;;;4.41;53.61
79331;BME280;68797;49.782;19.054;2024-01-30T08:58:52;98813.88;;;4.47;51.35
79331;BME280;68797;49.782;19.054;2024-01-30T09:01:25;98814.78;;;4.50;53.24
79331;BME280;68797;49.782;19.054;2024-01-30T09:04:08;98815.66;;;4.51;54.03
79331;BME280;68797;49.782;19.054;2024-01-30T09:06:41;98828.44;;;4.79;52.23
79331;BME280;68797;49.782;19.054;2024-01-30T09:09:22;98816.19;;;4.83;53.17
79331;BME280;68797;49.782;19.054;2024-01-30T09:11:55;98831.25;;;4.91;52.74
79331;BME280;68797;49.782;19.054;2024-01-30T09:14:37;98829.00;;;5.17;52.47
79331;BME280;68797;49.782;19.054;2024-01-30T09:17:09;98830.06;;;5.30;51.66
79331;BME280;68797;49.782;19.054;2024-01-30T09:19:46;98822.31;;;5.42;51.07
79331;BME280;68797;49.782;19.054;2024-01-30T09:22:20;98812.88;;;5.57;49.66
79331;BME280;68797;49.782;19.054;2024-01-30T09:25:13;98815.84;;;5.84;50.99
79331;BME280;68797;49.782;19.054;2024-01-30T09:27:53;98817.91;;;6.06;49.37
79331;BME280;68797;49.782;19.054;2024-01-30T09:30:22;98815.59;;;6.38;49.74
79331;BME280;68797;49.782;19.054;2024-01-30T09:33:06;98812.34;;;6.68;46.01
79331;BME280;68797;49.782;19.054;2024-01-30T09:35:39;98799.25;;;6.81;46.90
79331;BME280;68797;49.782;19.054;2024-01-30T09:38:15;98803.81;;;7.03;46.79
79331;BME280;68797;49.782;19.054;2024-01-30T09:40:53;98803.91;;;7.18;46.77
79331;BME280;68797;49.782;19.054;2024-01-30T09:43:36;98804.03;;;7.32;47.12
79331;BME280;68797;49.782;19.054;2024-01-30T09:46:12;98797.00;;;7.42;45.40
79331;BME280;68797;49.782;19.054;2024-01-30T09:49:05;98796.16;;;7.47;43.80
79331;BME280;68797;49.782;19.054;2024-01-30T09:51:36;98790.06;;;7.59;46.04
79331;BME280;68797;49.782;19.054;2024-01-30T09:54:15;98768.97;;;7.65;47.91
79331;BME280;68797;49.782;19.054;2024-01-30T09:56:48;98782.22;;;7.79;44.67
79331;BME280;68797;49.782;19.054;2024-01-30T09:59:43;98765.44;;;7.68;40.04
79331;BME280;68797;49.782;19.054;2024-01-30T10:02:16;98763.72;;;7.82;41.58
79331;BME280;68797;49.782;19.054;2024-01-30T10:04:53;98778.78;;;8.01;41.93
79331;BME280;68797;49.782;19.054;2024-01-30T10:07:26;98768.16;;;7.97;44.85
79331;BME280;68797;49.782;19.054;2024-01-30T10:09:59;98777.00;;;8.03;41.91
79331;BME280;68797;49.782;19.054;2024-01-30T10:12:33;98765.59;;;8.10;43.32
79331;BME280;68797;49.782;19.054;2024-01-30T10:15:08;98768.22;;;8.20;41.99
79331;BME280;68797;49.782;19.054;2024-01-30T10:17:54;98770.88;;;8.29;37.90
79331;BME280;68797;49.782;19.054;2024-01-30T10:20:44;98762.97;;;8.24;37.73
79331;BME280;68797;49.782;19.054;2024-01-30T10:23:16;98765.63;;;8.32;41.09
79331;BME280;68797;49.782;19.054;2024-01-30T10:26:15;98770.88;;;8.27;44.72
79331;BME280;68797;49.782;19.054;2024-01-30T10:28:48;98761.19;;;8.22;43.81
79331;BME280;68797;49.782;19.054;2024-01-30T10:31:25;98765.56;;;8.18;40.91
79331;BME280;68797;49.782;19.054;2024-01-30T10:34:01;98764.72;;;8.22;40.58
79331;BME280;68797;49.782;19.054;2024-01-30T10:36:50;98762.09;;;8.33;40.29
79331;BME280;68797;49.782;19.054;2024-01-30T10:39:22;98761.22;;;8.32;45.37
79331;BME280;68797;49.782;19.054;2024-01-30T10:42:04;98768.25;;;8.21;51.92
79331;BME280;68797;49.782;19.054;2024-01-30T10:44:43;98765.56;;;8.06;52.52
79331;BME280;68797;49.782;19.054;2024-01-30T10:47:20;98764.66;;;7.96;54.17
79331;BME280;68797;49.782;19.054;2024-01-30T10:49:55;98759.28;;;7.72;55.40
79331;BME280;68797;49.782;19.054;2024-01-30T10:52:37;98762.81;;;7.68;58.04
79331;BME280;68797;49.782;19.054;2024-01-30T10:55:17;98756.59;;;7.58;56.00
79331;BME280;68797;49.782;19.054;2024-01-30T10:57:59;98761.66;;;7.15;54.59
79331;BME280;68797;49.782;19.054;2024-01-30T11:00:32;98759.84;;;7.01;57.46
79331;BME280;68797;49.782;19.054;2024-01-30T11:03:20;98753.59;;;6.91;56.46
79331;BME280;68797;49.782;19.054;2024-01-30T11:05:53;98747.31;;;6.75;55.51
79331;BME280;68797;49.782;19.054;2024-01-30T11:08:32;98741.97;;;6.63;56.30
79331;BME280;68797;49.782;19.054;2024-01-30T11:11:12;98748.97;;;6.58;59.99
79331;BME280;68797;49.782;19.054;2024-01-30T11:13:47;98751.63;;;6.59;58.55
79331;BME280;68797;49.782;19.054;2024-01-30T11:16:32;98747.16;;;6.54;57.60
79331;BME280;68797;49.782;19.054;2024-01-30T11:19:10;98742.81;;;6.54;59.54
79331;BME280;68797;49.782;19.054;2024-01-30T11:21:44;98738.44;;;6.59;58.69
79331;BME280;68797;49.782;19.054;2024-01-30T11:24:23;98735.72;;;6.53;57.11
79331;BME280;68797;49.782;19.054;2024-01-30T11:27:04;98735.72;;;6.52;56.00
79331;BME280;68797;49.782;19.054;2024-01-30T11:29:50;98734.94;;;6.63;59.19
79331;BME280;68797;49.782;19.054;2024-01-30T11:32:28;98729.66;;;6.65;57.55
79331;BME280;68797;49.782;19.054;2024-01-30T11:35:04;98730.53;;;6.61;55.65
79331;BME280;68797;49.782;19.054;2024-01-30T11:37:43;98712.94;;;6.58;56.11
79331;BME280;68797;49.782;19.054;2024-01-30T11:40:21;98705.09;;;6.70;59.33
79331;BME280;68797;49.782;19.054;2024-01-30T11:42:54;98716.59;;;6.80;56.34
79331;BME280;68797;49.782;19.054;2024-01-30T11:45:24;98703.50;;;6.94;57.88
79331;BME280;68797;49.782;19.054;2024-01-30T11:47:58;98709.63;;;6.88;58.08
79331;BME280;68797;49.782;19.054;2024-01-30T11:50:45;98702.53;;;6.81;57.61
79331;BME280;68797;49.782;19.054;2024-01-30T11:53:20;98681.44;;;6.83;58.16
79331;BME280;68797;49.782;19.054;2024-01-30T11:55:57;98691.13;;;6.87;60.84
79331;BME280;68797;49.782;19.054;2024-01-30T11:58:31;98701.78;;;7.02;60.35
79331;BME280;68797;49.782;19.054;2024-01-30T12:01:11;98694.69;;;6.89;62.03
79331;BME280;68797;49.782;19.054;2024-01-30T12:03:56;98696.38;;;6.82;62.40
79331;BME280;68797;49.782;19.054;2024-01-30T12:06:43;98696.44;;;6.88;60.98
79331;BME280;68797;49.782;19.054;2024-01-30T12:09:26;98693.75;;;6.81;60.45
79331;BME280;68797;49.782;19.054;2024-01-30T12:12:00;98680.50;;;6.76;58.15
79331;BME280;68797;49.782;19.054;2024-01-30T12:14:37;98678.91;;;7.06;57.13
79331;BME280;68797;49.782;19.054;2024-01-30T12:17:32;98681.63;;;7.19;55.09
79331;BME280;68797;49.782;19.054;2024-01-30T12:20:26;98678.13;;;7.28;56.66
79331;BME280;68797;49.782;19.054;2024-01-30T12:23:01;98668.53;;;7.53;47.38
79331;BME280;68797;49.782;19.054;2024-01-30T12:25:29;98663.31;;;7.65;49.47
79331;BME280;68797;49.782;19.054;2024-01-30T12:28:00;98655.38;;;7.70;52.70
79331;BME280;68797;49.782;19.054;2024-01-30T12:30:32;98650.94;;;7.63;45.31
79331;BME280;68797;49.782;19.054;2024-01-30T12:33:16;98645.72;;;8.01;37.67
79331;BME280;68797;49.782;19.054;2024-01-30T12:36:04;98654.53;;;8.01;47.35
79331;BME280;68797;49.782;19.054;2024-01-30T12:38:35;98633.38;;;7.77;51.70
79331;BME280;68797;49.782;19.054;2024-01-30T12:41:08;98637.78;;;7.85;42.75
79331;BME280;68797;49.782;19.054;2024-01-30T12:43:51;98633.38;;;7.86;44.79
79331;BME280;68797;49.782;19.054;2024-01-30T12:46:29;98649.22;;;7.75;47.86
79331;BME280;68797;49.782;19.054;2024-01-30T12:49:07;98648.34;;;7.78;46.20
79331;BME280;68797;49.782;19.054;2024-01-30T12:51:42;98650.97;;;7.75;44.73
79331;BME280;68797;49.782;19.054;2024-01-30T12:54:16;98644.81;;;7.68;48.49
79331;BME280;68797;49.782;19.054;2024-01-30T12:56:49;98622.78;;;7.57;45.93
79331;BME280;68797;49.782;19.054;2024-01-30T12:59:23;98644.81;;;7.86;46.27
79331;BME280;68797;49.782;19.054;2024-01-30T13:02:00;98641.34;;;8.00;44.76
79331;BME280;68797;49.782;19.054;2024-01-30T13:04:38;98637.78;;;7.85;45.69
79331;BME280;68797;49.782;19.054;2024-01-30T13:07:12;98637.78;;;7.79;46.22
79331;BME280;68797;49.782;19.054;2024-01-30T13:09:49;98633.38;;;7.68;48.48
79331;BME280;68797;49.782;19.054;2024-01-30T13:12:20;98633.34;;;7.63;49.12
79331;BME280;68797;49.782;19.054;2024-01-30T13:15:06;98643.00;;;7.53;49.85
79331;BME280;68797;49.782;19.054;2024-01-30T13:17:44;98641.25;;;7.46;48.37
79331;BME280;68797;49.782;19.054;2024-01-30T13:20:23;98642.16;;;7.62;46.15
79331;BME280;68797;49.782;19.054;2024-01-30T13:22:58;98646.53;;;7.52;49.20
79331;BME280;68797;49.782;19.054;2024-01-30T13:25:40;98643.88;;;7.43;50.90
79331;BME280;68797;49.782;19.054;2024-01-30T13:28:10;98640.34;;;7.52;38.66
79331;BME280;68797;49.782;19.054;2024-01-30T13:31:07;98643.06;;;7.76;41.36
79331;BME280;68797;49.782;19.054;2024-01-30T13:33:46;98647.50;;;7.91;38.69
79331;BME280;68797;49.782;19.054;2024-01-30T13:36:19;98651.88;;;7.92;37.58